createdAt,value
2019-04-23T00:01:14.696Z,96663.33
2019-04-23T00:03:34.326Z,96659.23
2019-04-23T00:06:15.164Z,96657.67
2019-04-23T00:08:42.097Z,96654.34
2019-04-23T00:11:15.383Z,96651.98
2019-04-23T00:13:38.761Z,96648.67
2019-04-23T00:16:25.056Z,96649.45
2019-04-23T00:18:42.270Z,96650.02
2019-04-23T00:21:38.157Z,96645.53
2019-04-23T00:24:15.762Z,96641.83
2019-04-23T00:29:13.520Z,96644.16
2019-04-23T00:31:31.649Z,96635.20
2019-04-23T00:34:10.973Z,96634.03
2019-04-23T00:36:51.605Z,96635.98
2019-04-23T00:39:06.009Z,96631.86
2019-04-23T00:41:37.700Z,96623.87
2019-04-23T00:44:09.036Z,96629.67
2019-04-23T00:49:10.744Z,96622.81
2019-04-23T00:51:36.920Z,96622.61
2019-04-23T00:54:12.260Z,96619.48
2019-04-23T00:56:46.222Z,96615.17
2019-04-23T00:59:05.304Z,96604.45
2019-04-23T01:01:49.717Z,96608.55
2019-04-23T01:04:07.281Z,96608.73
2019-04-23T01:06:37.367Z,96601.52
2019-04-23T01:09:08.841Z,96605.80
2019-04-23T01:11:39.172Z,96608.33
2019-04-23T01:14:13.670Z,96598.20
2019-04-23T01:16:37.517Z,96601.28
2019-04-23T01:19:24.567Z,96604.82
2019-04-23T01:21:32.927Z,96608.69
2019-04-23T01:24:25.133Z,96603.85
2019-04-23T01:27:49.609Z,96599.77
2019-04-23T01:30:17.837Z,96599.17
2019-04-23T01:32:36.575Z,96599.70
2019-04-23T01:37:41.111Z,96597.57
2019-04-23T01:40:23.124Z,96599.11
2019-04-23T01:45:19.829Z,96588.78
2019-04-23T01:47:50.266Z,96591.33
2019-04-23T01:55:24.723Z,96586.84
2019-04-23T01:57:56.349Z,96589.72
2019-04-23T02:00:22.769Z,96581.94
2019-04-23T02:03:01.204Z,96578.08
2019-04-23T02:05:23.222Z,96583.34
2019-04-23T02:07:53.702Z,96580.80
2019-04-23T02:10:33.271Z,96577.08
2019-04-23T02:12:55.818Z,96579.81
2019-04-23T02:15:22.945Z,96587.02
2019-04-23T02:17:58.729Z,96574.72
2019-04-23T02:20:34.571Z,96574.73
2019-04-23T02:28:15.940Z,96564.22
2019-04-23T02:30:58.170Z,96561.67
2019-04-23T02:33:21.628Z,96560.30
2019-04-23T02:35:50.576Z,96561.09
2019-04-23T02:48:19.439Z,96554.33
2019-04-23T02:55:59.585Z,96546.09
2019-04-23T03:01:10.459Z,96541.59
2019-04-23T03:03:25.252Z,96545.09
2019-04-23T03:05:54.924Z,96546.59
2019-04-23T03:11:01.274Z,96538.95
2019-04-23T03:16:16.153Z,96525.17
2019-04-23T03:18:51.651Z,96525.28
2019-04-23T03:37:23.102Z,96528.02
2019-04-23T03:39:56.590Z,96525.70
2019-04-23T03:42:22.401Z,96526.88
2019-04-23T03:47:24.104Z,96526.41
2019-04-23T03:49:56.159Z,96521.73
2019-04-23T03:57:24.526Z,96513.59
2019-04-23T04:00:02.372Z,96514.97
2019-04-23T04:02:44.033Z,96516.52
2019-04-23T04:04:44.553Z,96511.45
2019-04-23T04:07:36.270Z,96505.60
2019-04-23T04:12:45.743Z,96505.02
2019-04-23T04:15:03.989Z,96499.38
2019-04-23T04:17:39.071Z,96507.17
2019-04-23T04:19:58.503Z,96502.73
2019-04-23T04:25:14.465Z,96506.06
2019-04-23T04:27:36.562Z,96511.52
2019-04-23T04:32:36.718Z,96511.39
2019-04-23T04:37:40.444Z,96500.67
2019-04-23T04:40:23.374Z,96498.35
2019-04-23T04:42:25.215Z,96491.32
2019-04-23T04:47:36.120Z,96497.73
2019-04-23T04:49:59.515Z,96496.18
2019-04-23T04:52:44.651Z,96509.06
2019-04-23T04:55:03.833Z,96499.30
2019-04-23T04:57:36.667Z,96505.92
2019-04-23T05:00:30.258Z,96500.80
2019-04-23T05:02:57.378Z,96500.80
2019-04-23T05:07:36.102Z,96505.06
2019-04-23T05:10:29.214Z,96513.46
2019-04-23T05:12:46.850Z,96511.89
2019-04-23T05:15:04.690Z,96504.39
2019-04-23T05:18:17.458Z,96509.05
2019-04-23T05:20:42.973Z,96512.58
2019-04-23T05:23:19.360Z,96509.38
2019-04-23T05:25:37.800Z,96504.79
2019-04-23T05:30:44.608Z,96510.36
2019-04-23T05:38:37.148Z,96504.06
2019-04-23T05:40:52.037Z,96506.91
2019-04-23T05:43:12.319Z,96506.69
2019-04-23T05:45:44.296Z,96498.53
2019-04-23T05:50:50.603Z,96500.42
2019-04-23T05:53:18.936Z,96503.44
2019-04-23T05:55:49.329Z,96500.00
2019-04-23T06:05:58.209Z,96506.70
2019-04-23T06:08:28.525Z,96505.82
2019-04-23T06:10:57.207Z,96508.77
2019-04-23T06:13:26.265Z,96507.79
2019-04-23T06:15:50.398Z,96515.25
2019-04-23T06:18:24.762Z,96514.04
2019-04-23T06:20:55.939Z,96518.69
2019-04-23T06:23:29.037Z,96511.66
2019-04-23T06:26:08.493Z,96513.45
2019-04-23T06:28:27.082Z,96506.66
2019-04-23T06:33:25.613Z,96507.80
2019-04-23T06:36:01.283Z,96510.83
2019-04-23T06:38:41.159Z,96511.05
2019-04-23T06:41:00.838Z,96511.25
2019-04-23T06:43:38.814Z,96499.60
2019-04-23T06:46:09.387Z,96510.05
2019-04-23T06:48:35.488Z,96505.33
2019-04-23T06:53:34.236Z,96506.56
2019-04-23T07:01:04.914Z,96510.13
2019-04-23T07:08:56.250Z,96506.10
2019-04-23T07:11:16.672Z,96508.44
2019-04-23T07:13:49.193Z,96512.59
2019-04-23T07:16:22.813Z,96510.24
2019-04-23T07:18:41.535Z,96517.23
2019-04-23T07:21:13.253Z,96506.38
2019-04-23T07:23:54.327Z,96514.57
2019-04-23T07:26:26.057Z,96505.89
2019-04-23T07:28:50.032Z,96505.70
2019-04-23T07:33:52.798Z,96506.22
2019-04-23T07:36:21.107Z,96512.42
2019-04-23T07:44:51.929Z,96511.53
2019-04-23T07:47:41.827Z,96507.42
2019-04-23T07:50:32.870Z,96507.78
2019-04-23T07:52:57.211Z,96506.61
2019-04-23T07:55:21.953Z,96510.26
2019-04-23T07:57:52.144Z,96511.11
2019-04-23T08:00:18.175Z,96513.16
2019-04-23T08:02:43.437Z,96499.52
2019-04-23T08:07:53.011Z,96499.89
2019-04-23T08:10:18.581Z,96499.45
2019-04-23T08:12:49.255Z,96496.89
2019-04-23T08:15:23.120Z,96500.63
2019-04-23T08:17:42.779Z,96492.48
2019-04-23T08:20:23.317Z,96503.32
2019-04-23T08:22:49.657Z,96497.55
2019-04-23T08:26:03.176Z,96496.27
2019-04-23T08:28:37.163Z,96496.44
2019-04-23T08:30:53.398Z,96498.10
2019-04-23T08:33:25.014Z,96500.09
2019-04-23T08:35:57.781Z,96497.55
2019-04-23T08:38:32.389Z,96505.50
2019-04-23T08:41:06.035Z,96503.72
2019-04-23T08:46:06.671Z,96494.06
2019-04-23T08:53:43.103Z,96498.55
2019-04-23T08:56:08.682Z,96490.93
2019-04-23T08:58:41.469Z,96496.86
2019-04-23T09:03:40.928Z,96494.52
2019-04-23T09:06:15.966Z,96484.06
2019-04-23T09:08:37.180Z,96486.25
2019-04-23T09:21:16.049Z,96485.84
2019-04-23T09:26:08.899Z,96473.52
2019-04-23T09:31:57.074Z,96470.29
2019-04-23T09:34:04.963Z,96476.81
2019-04-23T09:37:06.211Z,96466.02
2019-04-23T09:39:43.047Z,96462.63
2019-04-23T09:42:14.737Z,96471.61
2019-04-23T09:45:00.069Z,96467.59
2019-04-23T09:47:46.064Z,96461.73
2019-04-23T09:50:15.309Z,96468.52
2019-04-23T09:55:22.415Z,96469.27
2019-04-23T09:57:52.288Z,96473.75
2019-04-23T10:00:38.095Z,96467.56
2019-04-23T10:02:44.997Z,96458.03
2019-04-23T10:05:12.477Z,96454.69
2019-04-23T10:07:41.879Z,96452.44
2019-04-23T10:09:59.553Z,96458.02
2019-04-23T10:12:32.142Z,96452.98
2019-04-23T10:15:09.985Z,96451.05
2019-04-23T10:17:36.114Z,96442.13
2019-04-23T10:20:08.571Z,96440.34
2019-04-23T10:22:39.629Z,96445.54
2019-04-23T10:25:10.889Z,96441.47
2019-04-23T10:27:41.322Z,96447.16
2019-04-23T10:30:12.327Z,96452.23
2019-04-23T10:32:43.234Z,96441.36
2019-04-23T10:35:24.762Z,96443.25
2019-04-23T10:37:52.916Z,96448.80
2019-04-23T10:40:22.942Z,96442.97
2019-04-23T10:42:50.149Z,96442.41
2019-04-23T10:45:53.883Z,96436.69
2019-04-23T10:49:00.702Z,96445.48
2019-04-23T10:51:33.916Z,96443.17
2019-04-23T10:54:24.031Z,96443.61
2019-04-23T10:56:44.816Z,96445.70
2019-04-23T10:59:34.225Z,96444.87
2019-04-23T11:02:15.977Z,96445.01
2019-04-23T11:04:47.254Z,96439.61
2019-04-23T11:09:50.152Z,96451.16
2019-04-23T11:12:24.282Z,96446.72
2019-04-23T11:14:52.726Z,96457.18
2019-04-23T11:17:25.927Z,96444.49
2019-04-23T11:27:31.247Z,96439.13
2019-04-23T11:30:17.040Z,96444.27
2019-04-23T11:35:11.549Z,96429.40
2019-04-23T11:37:40.925Z,96437.46
2019-04-23T11:40:13.500Z,96424.10
2019-04-23T11:42:41.316Z,96425.53
2019-04-23T11:45:21.526Z,96427.19
2019-04-23T11:48:14.213Z,96437.80
2019-04-23T11:50:42.082Z,96427.33
2019-04-23T11:55:28.663Z,96421.41
2019-04-23T11:57:52.039Z,96404.30
2019-04-23T12:00:28.832Z,96410.53
2019-04-23T12:02:59.268Z,96409.02
2019-04-23T12:06:00.304Z,96408.26
2019-04-23T12:11:52.775Z,96416.19
2019-04-23T12:14:32.755Z,96422.36
2019-04-23T12:17:22.600Z,96419.90
2019-04-23T12:19:52.084Z,96429.81
2019-04-23T12:27:17.987Z,96417.38
2019-04-23T12:35:16.663Z,96421.06
2019-04-23T12:45:26.959Z,96417.20
2019-04-23T12:50:38.054Z,96425.36
2019-04-23T12:52:48.542Z,96435.85
2019-04-23T12:57:46.791Z,96419.44
2019-04-23T13:00:22.481Z,96418.87
2019-04-23T13:03:06.561Z,96423.98
2019-04-23T13:05:31.372Z,96424.93
2019-04-23T13:08:22.051Z,96419.89
2019-04-23T13:13:09.278Z,96419.99
2019-04-23T13:18:03.095Z,96410.25
2019-04-23T13:20:36.590Z,96395.33
2019-04-23T13:25:54.263Z,96396.09
2019-04-23T13:33:36.145Z,96408.42
2019-04-23T13:36:19.068Z,96408.20
2019-04-23T13:43:40.629Z,96409.88
2019-04-23T13:48:29.981Z,96409.55
2019-04-23T13:51:14.656Z,96405.16
2019-04-23T13:56:11.279Z,96406.72
2019-04-23T13:58:53.553Z,96407.35
2019-04-23T14:03:50.590Z,96418.93
2019-04-23T14:13:56.752Z,96420.52
2019-04-23T14:16:35.666Z,96423.12
2019-04-23T14:21:36.983Z,96423.11
2019-04-23T14:24:08.977Z,96418.05
2019-04-23T14:26:36.583Z,96425.52
2019-04-23T14:29:02.168Z,96431.44
2019-04-23T14:31:44.671Z,96430.44
2019-04-23T14:34:05.014Z,96436.78
2019-04-23T14:39:16.235Z,96447.68
2019-04-23T14:44:16.104Z,96438.50
2019-04-23T14:47:05.038Z,96440.45
2019-04-23T14:49:26.155Z,96443.52
2019-04-23T14:51:58.852Z,96445.23
2019-04-23T14:55:01.344Z,96439.48
2019-04-23T14:57:07.857Z,96439.33
2019-04-23T14:59:30.695Z,96442.27
2019-04-23T15:02:05.197Z,96452.68
2019-04-23T15:04:43.694Z,96444.70
2019-04-23T15:09:43.518Z,96440.89
2019-04-23T15:12:24.576Z,96448.83
2019-04-23T15:17:20.280Z,96448.31
2019-04-23T15:19:55.179Z,96447.27
2019-04-23T15:22:38.578Z,96450.19
2019-04-23T15:25:15.352Z,96457.66
2019-04-23T15:28:03.561Z,96450.15
2019-04-23T15:29:52.582Z,96457.96
2019-04-23T15:32:35.065Z,96461.18
2019-04-23T15:35:18.136Z,96460.09
2019-04-23T15:38:16.284Z,96453.56
2019-04-23T15:42:35.519Z,96461.30
2019-04-23T15:50:10.996Z,96464.63
2019-04-23T15:57:54.632Z,96468.58
2019-04-23T16:00:05.243Z,96473.25
2019-04-23T16:02:09.762Z,96466.47
2019-04-23T16:04:39.938Z,96471.77
2019-04-23T16:07:10.529Z,96473.41
2019-04-23T16:10:08.922Z,96472.44
2019-04-23T16:12:31.541Z,96485.75
2019-04-23T16:15:06.518Z,96491.81
2019-04-23T16:18:07.826Z,96486.73
2019-04-23T16:22:39.348Z,96498.04
2019-04-23T16:25:13.005Z,96500.83
2019-04-23T16:27:50.399Z,96502.12
2019-04-23T16:35:50.030Z,96506.34
2019-04-23T16:40:42.708Z,96518.02
2019-04-23T16:43:19.842Z,96508.13
2019-04-23T16:45:57.407Z,96514.16
2019-04-23T16:48:40.583Z,96511.14
2019-04-23T16:51:11.871Z,96516.12
2019-04-23T16:53:21.239Z,96515.72
2019-04-23T16:55:55.094Z,96510.45
2019-04-23T16:58:27.827Z,96508.28
2019-04-23T17:01:06.001Z,96506.98
2019-04-23T17:03:28.185Z,96508.02
2019-04-23T17:05:57.043Z,96501.73
2019-04-23T17:11:02.383Z,96503.19
2019-04-23T17:13:24.128Z,96500.95
2019-04-23T17:16:06.725Z,96507.67
2019-04-23T17:20:56.293Z,96514.28
2019-04-23T17:23:40.172Z,96526.42
2019-04-23T17:31:26.313Z,96546.94
2019-04-23T17:33:45.139Z,96541.95
2019-04-23T17:38:56.895Z,96541.08
2019-04-23T17:41:48.664Z,96537.44
2019-04-23T17:44:18.649Z,96536.77
2019-04-23T17:46:42.763Z,96534.58
2019-04-23T17:49:11.223Z,96535.88
2019-04-23T17:51:32.142Z,96531.16
2019-04-23T17:54:25.091Z,96536.42
2019-04-23T17:57:02.931Z,96537.26
2019-04-23T17:59:15.879Z,96542.55
2019-04-23T18:01:47.365Z,96544.62
2019-04-23T18:04:20.645Z,96547.48
2019-04-23T18:09:18.464Z,96545.69
2019-04-23T18:14:12.975Z,96553.78
2019-04-23T18:19:16.930Z,96560.88
2019-04-23T18:22:35.599Z,96560.33
2019-04-23T18:25:08.219Z,96555.63
2019-04-23T18:27:54.387Z,96555.81
2019-04-23T18:30:28.841Z,96557.57
2019-04-23T18:35:42.762Z,96560.59
2019-04-23T18:43:21.543Z,96558.06
2019-04-23T18:45:45.323Z,96563.23
2019-04-23T18:51:05.197Z,96564.00
2019-04-23T18:53:40.986Z,96575.12
2019-04-23T18:58:44.758Z,96570.00
2019-04-23T19:01:05.606Z,96575.95
2019-04-23T19:04:00.384Z,96578.92
2019-04-23T19:07:04.681Z,96572.78
2019-04-23T19:13:04.405Z,96576.08
2019-04-23T19:18:12.661Z,96581.67
2019-04-23T19:20:45.222Z,96568.80
2019-04-23T19:23:08.621Z,96569.66
2019-04-23T19:25:30.230Z,96574.38
2019-04-23T19:28:15.557Z,96574.05
2019-04-23T19:30:57.235Z,96577.14
2019-04-23T19:38:32.888Z,96583.66
2019-04-23T19:40:55.238Z,96576.80
2019-04-23T19:43:36.516Z,96580.65
2019-04-23T19:48:42.517Z,96582.23
2019-04-23T19:51:08.724Z,96575.72
2019-04-23T20:01:15.378Z,96572.89
2019-04-23T20:03:49.334Z,96576.41
2019-04-23T20:06:07.894Z,96572.27
2019-04-23T20:08:55.858Z,96574.77
2019-04-23T20:11:17.791Z,96575.70
2019-04-23T20:18:52.261Z,96587.31
2019-04-23T20:21:29.951Z,96583.04
2019-04-23T20:26:19.945Z,96588.58
2019-04-23T20:29:16.362Z,96588.63
2019-04-23T20:37:02.847Z,96592.34
2019-04-23T20:44:37.239Z,96584.55
2019-04-23T20:47:10.221Z,96587.88
2019-04-23T20:49:38.776Z,96586.56
2019-04-23T20:52:06.224Z,96587.36
2019-04-23T20:54:42.381Z,96587.39
2019-04-23T20:57:30.570Z,96585.45
2019-04-23T21:00:01.625Z,96586.22
2019-04-23T21:03:17.620Z,96583.12
2019-04-23T21:07:54.146Z,96590.56
2019-04-23T21:12:59.196Z,96589.19
2019-04-23T21:17:55.806Z,96587.86
2019-04-23T21:22:58.992Z,96589.44
2019-04-23T21:25:17.613Z,96591.98
2019-04-23T21:28:04.799Z,96594.72
2019-04-23T21:30:59.411Z,96591.98
2019-04-23T21:33:12.678Z,96587.69
2019-04-23T21:38:47.564Z,96596.09
2019-04-23T21:44:09.577Z,96602.16
2019-04-23T21:51:45.849Z,96599.07
2019-04-23T21:53:56.831Z,96607.47
2019-04-23T21:59:06.285Z,96607.47
2019-04-23T22:01:37.097Z,96609.81
2019-04-23T22:06:49.342Z,96614.48
2019-04-23T22:09:18.819Z,96616.05
2019-04-23T22:14:09.910Z,96612.50
2019-04-23T22:16:57.637Z,96611.34
2019-04-23T22:19:17.034Z,96603.34
2019-04-23T22:24:08.752Z,96604.28
2019-04-23T22:26:40.685Z,96606.43
2019-04-23T22:31:44.298Z,96616.95
2019-04-23T22:36:51.506Z,96617.88
2019-04-23T22:39:17.741Z,96613.00
2019-04-23T22:41:54.166Z,96612.79
2019-04-23T22:44:30.997Z,96612.02
2019-04-23T22:46:53.531Z,96617.48
2019-04-23T22:49:33.403Z,96615.53
2019-04-23T22:54:22.975Z,96618.26
2019-04-23T22:56:54.762Z,96625.45
2019-04-23T23:02:37.136Z,96626.40
2019-04-23T23:04:55.969Z,96625.24
2019-04-23T23:07:19.676Z,96632.46
2019-04-23T23:09:56.490Z,96623.10
2019-04-23T23:12:21.602Z,96631.47
2019-04-23T23:14:54.746Z,96627.58
2019-04-23T23:17:20.709Z,96624.66
2019-04-23T23:20:01.150Z,96628.75
2019-04-23T23:22:39.812Z,96623.48
2019-04-23T23:24:56.470Z,96626.80
2019-04-23T23:27:15.143Z,96619.98
2019-04-23T23:30:00.437Z,96626.22
2019-04-23T23:32:23.247Z,96620.16
2019-04-23T23:35:16.170Z,96618.02
2019-04-23T23:37:20.714Z,96617.64
2019-04-23T23:39:58.356Z,96620.94
2019-04-23T23:47:18.237Z,96623.87
2019-04-23T23:50:00.932Z,96630.89
2019-04-23T23:52:34.064Z,96627.34
2019-04-23T23:55:03.918Z,96630.23
2019-04-23T23:57:23.401Z,96621.08
